Time;durP1;ratioP1;P1;durP2;ratioP2;P2;SDS_P1;SDS_P2;PMS_P1;PMS_P2;Temp;Humidity;BMP_temperature;BMP_pressure;BME280_temperature;BME280_humidity;BME280_pressure;Samples;Min_cycle;Max_cycle;Signal;HPM_P1;HPM_P2
2022/11/21 00:01:41;;;;;;;7.43;2.35;;;;;;;;;;5092293;28;20024;-69
2022/11/21 00:04:08;;;;;;;7.90;2.35;;;;;;;;;;5092068;28;20132;-69
2022/11/21 00:06:34;;;;;;;9.65;2.47;;;;;;;;;;5091923;28;20374;-69
2022/11/21 00:09:00;;;;;;;14.18;3.30;;;;;;;;;;5091983;28;20031;-69
2022/11/21 00:11:27;;;;;;;13.07;3.08;;;;;;;;;;5092006;28;20031;-69
2022/11/21 00:13:53;;;;;;;8.50;2.40;;;;;;;;;;5092148;28;20489;-69
2022/11/21 00:16:19;;;;;;;7.15;2.55;;;;;;;;;;5092260;28;20028;-69
2022/11/21 00:18:45;;;;;;;10.23;2.28;;;;;;;;;;5092302;28;20024;-69
2022/11/21 00:21:13;;;;;;;9.43;2.38;;;;;;;;;;5091872;28;20038;-69
2022/11/21 00:23:40;;;;;;;11.57;2.72;;;;;;;;;;5092148;28;20020;-69
2022/11/21 00:26:07;;;;;;;15.10;3.15;;;;;;;;;;5092057;28;20028;-69
2022/11/21 00:28:34;;;;;;;10.73;2.63;;;;;;;;;;5091815;28;20662;-69
2022/11/21 00:31:00;;;;;;;12.45;2.70;;;;;;;;;;5091676;28;20028;-69
2022/11/21 00:33:26;;;;;;;8.25;2.10;;;;;;;;;;5091747;28;20020;-69
2022/11/21 00:35:53;;;;;;;13.40;3.10;;;;;;;;;;5091467;28;20031;-69
2022/11/21 00:38:19;;;;;;;11.10;2.80;;;;;;;;;;5091731;28;20523;-69
2022/11/21 00:40:45;;;;;;;11.00;2.55;;;;;;;;;;5095424;28;20032;-69
2022/11/21 00:43:12;;;;;;;9.90;2.85;;;;;;;;;;5095470;28;20024;-69
2022/11/21 00:45:39;;;;;;;11.32;2.65;;;;;;;;;;5095540;28;20042;-69
2022/11/21 00:48:05;;;;;;;12.68;2.53;;;;;;;;;;5095382;28;20024;-69
2022/11/21 00:50:32;;;;;;;9.50;3.30;;;;;;;;;;5095462;28;20028;-69
2022/11/21 00:52:58;;;;;;;9.10;2.92;;;;;;;;;;5095360;28;20016;-69
2022/11/21 00:55:25;;;;;;;9.93;2.72;;;;;;;;;;5095347;28;20022;-69
2022/11/21 00:57:51;;;;;;;11.43;2.88;;;;;;;;;;5095196;28;20481;-69
2022/11/21 01:00:17;;;;;;;11.93;3.05;;;;;;;;;;5095217;28;20027;-69
2022/11/21 01:02:44;;;;;;;10.18;2.92;;;;;;;;;;5095119;28;20044;-69
2022/11/21 01:05:10;;;;;;;14.30;3.55;;;;;;;;;;5094937;28;20016;-69
2022/11/21 01:07:36;;;;;;;10.10;2.55;;;;;;;;;;5094966;28;20032;-69
2022/11/21 01:10:03;;;;;;;12.43;3.38;;;;;;;;;;5095076;28;20390;-69
2022/11/21 01:12:30;;;;;;;14.07;3.25;;;;;;;;;;5095047;28;20034;-69
2022/11/21 01:14:57;;;;;;;16.90;3.10;;;;;;;;;;5094853;28;20382;-69
2022/11/21 01:17:23;;;;;;;8.88;3.38;;;;;;;;;;5095325;28;20020;-69
2022/11/21 01:19:49;;;;;;;15.60;3.85;;;;;;;;;;5094551;28;20016;-69
2022/11/21 01:22:16;;;;;;;15.50;4.20;;;;;;;;;;5094939;28;20020;-69
2022/11/21 01:24:42;;;;;;;16.80;3.88;;;;;;;;;;5094836;28;20400;-69
2022/11/21 01:27:08;;;;;;;20.30;4.88;;;;;;;;;;5094755;28;20036;-69
2022/11/21 01:29:35;;;;;;;12.63;4.10;;;;;;;;;;5094705;28;20020;-69
2022/11/21 01:32:01;;;;;;;13.20;4.68;;;;;;;;;;5094583;28;20057;-69
2022/11/21 01:34:27;;;;;;;13.75;4.13;;;;;;;;;;5094435;28;20061;-69
2022/11/21 01:36:54;;;;;;;15.32;4.32;;;;;;;;;;5094366;28;20473;-69
2022/11/21 01:39:20;;;;;;;14.85;3.83;;;;;;;;;;5094562;28;20038;-69
2022/11/21 01:41:47;;;;;;;10.70;3.72;;;;;;;;;;5094284;28;20044;-69
2022/11/21 01:44:23;;;;;;;15.70;3.25;;;;;;;;;;5094383;28;20509;-69
2022/11/21 01:46:50;;;;;;;12.35;3.47;;;;;;;;;;5094384;28;20050;-69
2022/11/21 01:49:21;;;;;;;12.70;3.20;;;;;;;;;;5093307;28;20046;-69
2022/11/21 01:51:47;;;;;;;12.57;3.35;;;;;;;;;;5093988;28;20473;-69
2022/11/21 01:54:17;;;;;;;15.15;3.97;;;;;;;;;;5094357;28;20077;-69
2022/11/21 01:56:43;;;;;;;12.85;3.28;;;;;;;;;;5094036;28;20058;-69
2022/11/21 01:59:11;;;;;;;16.00;3.65;;;;;;;;;;5093890;28;20024;-69
2022/11/21 02:01:37;;;;;;;15.90;4.25;;;;;;;;;;5093850;28;20049;-69
2022/11/21 02:04:04;;;;;;;14.10;3.95;;;;;;;;;;5093771;28;20592;-68
2022/11/21 02:06:31;;;;;;;20.17;5.22;;;;;;;;;;5093873;28;20031;-69
2022/11/21 02:08:58;;;;;;;15.07;5.05;;;;;;;;;;5093788;28;20044;-69
2022/11/21 02:11:37;;;;;;;14.23;4.43;;;;;;;;;;5094011;28;20028;-69
2022/11/21 02:14:03;;;;;;;20.45;3.75;;;;;;;;;;5094220;28;20032;-69
2022/11/21 02:16:30;;;;;;;19.90;5.15;;;;;;;;;;5093659;28;20362;-69
2022/11/21 02:18:56;;;;;;;17.67;5.07;;;;;;;;;;5093552;28;20032;-69
2022/11/21 02:21:23;;;;;;;14.65;4.90;;;;;;;;;;5093580;28;20046;-69
2022/11/21 02:23:53;;;;;;;14.00;4.53;;;;;;;;;;5093552;28;20024;-69
2022/11/21 02:26:20;;;;;;;18.92;4.97;;;;;;;;;;5093708;28;20016;-69
2022/11/21 02:28:46;;;;;;;15.05;4.45;;;;;;;;;;5093470;28;20035;-69
2022/11/21 02:31:12;;;;;;;16.98;5.00;;;;;;;;;;5093639;28;20036;-69
2022/11/21 02:33:39;;;;;;;17.35;5.10;;;;;;;;;;5092978;28;20366;-69
2022/11/21 02:36:25;;;;;;;10.38;4.32;;;;;;;;;;5093225;28;20028;-69
2022/11/21 02:38:51;;;;;;;15.32;3.92;;;;;;;;;;5093508;28;20056;-69
2022/11/21 02:41:25;;;;;;;14.35;4.68;;;;;;;;;;5093091;28;20024;-69
2022/11/21 02:43:57;;;;;;;20.08;5.30;;;;;;;;;;5092981;28;20374;-69
2022/11/21 02:46:23;;;;;;;17.45;5.15;;;;;;;;;;5092760;28;20511;-69
2022/11/21 02:48:49;;;;;;;14.57;5.20;;;;;;;;;;5093550;28;20024;-69
2022/11/21 02:51:15;;;;;;;13.63;4.82;;;;;;;;;;5093121;28;20031;-69
2022/11/21 02:53:42;;;;;;;14.73;5.10;;;;;;;;;;5093326;28;20036;-69
2022/11/21 02:56:08;;;;;;;12.25;4.05;;;;;;;;;;5093058;28;20032;-69
2022/11/21 02:58:35;;;;;;;15.30;4.75;;;;;;;;;;5092860;28;20024;-69
2022/11/21 03:01:01;;;;;;;14.73;4.93;;;;;;;;;;5092000;28;20495;-69
2022/11/21 03:03:27;;;;;;;16.23;4.30;;;;;;;;;;5092705;28;20024;-69
2022/11/21 03:05:54;;;;;;;18.05;4.20;;;;;;;;;;5074825;28;20028;-69
2022/11/21 03:08:20;;;;;;;14.73;4.03;;;;;;;;;;5092632;28;20036;-70
2022/11/21 03:10:47;;;;;;;22.23;4.93;;;;;;;;;;5092757;28;20072;-69
2022/11/21 03:13:13;;;;;;;11.45;3.28;;;;;;;;;;5092681;28;20038;-69
2022/11/21 03:15:39;;;;;;;11.60;3.17;;;;;;;;;;5092197;28;20507;-69
2022/11/21 03:18:06;;;;;;;13.88;3.80;;;;;;;;;;5092918;28;20034;-69
2022/11/21 03:20:33;;;;;;;12.70;2.75;;;;;;;;;;5092469;28;20483;-69
2022/11/21 03:22:59;;;;;;;8.23;2.15;;;;;;;;;;5092920;28;20149;-69
2022/11/21 03:25:26;;;;;;;16.67;3.85;;;;;;;;;;5092438;28;20362;-69
2022/11/21 03:27:53;;;;;;;11.98;4.00;;;;;;;;;;5092231;28;20065;-69
2022/11/21 03:30:20;;;;;;;16.45;4.90;;;;;;;;;;5092143;28;20477;-69
2022/11/21 03:32:46;;;;;;;26.42;4.85;;;;;;;;;;5074223;28;20032;-69
2022/11/21 03:35:13;;;;;;;20.58;4.75;;;;;;;;;;5092397;28;20497;-69
2022/11/21 03:37:40;;;;;;;14.88;4.45;;;;;;;;;;5092472;28;20109;-69
2022/11/21 03:40:06;;;;;;;15.43;4.65;;;;;;;;;;5092188;28;20081;-69
2022/11/21 03:42:33;;;;;;;8.75;4.15;;;;;;;;;;5092567;28;20034;-69
2022/11/21 03:44:59;;;;;;;11.95;4.22;;;;;;;;;;5092239;28;20024;-69
2022/11/21 03:47:26;;;;;;;18.52;4.22;;;;;;;;;;5092170;28;20477;-69
2022/11/21 03:49:52;;;;;;;17.42;4.68;;;;;;;;;;5092089;28;20027;-69
2022/11/21 03:52:19;;;;;;;17.98;4.82;;;;;;;;;;5092374;28;20030;-69
2022/11/21 03:54:45;;;;;;;12.32;3.58;;;;;;;;;;5092074;28;20016;-69
2022/11/21 03:57:11;;;;;;;18.17;4.35;;;;;;;;;;5092136;28;20477;-69
2022/11/21 03:59:38;;;;;;;12.45;3.85;;;;;;;;;;5091992;28;20020;-69
2022/11/21 04:02:04;;;;;;;11.55;4.38;;;;;;;;;;5092059;28;20034;-69
2022/11/21 04:04:30;;;;;;;16.75;4.30;;;;;;;;;;5091885;28;20024;-69
2022/11/21 04:06:56;;;;;;;13.88;3.88;;;;;;;;;;5092030;28;20024;-69
2022/11/21 04:09:23;;;;;;;16.42;3.70;;;;;;;;;;5092186;28;20035;-69
2022/11/21 04:11:49;;;;;;;13.25;3.55;;;;;;;;;;5091873;28;20016;-69
2022/11/21 04:14:15;;;;;;;13.70;4.13;;;;;;;;;;5095399;28;20028;-69
2022/11/21 04:16:42;;;;;;;16.42;3.60;;;;;;;;;;5095962;28;20020;-69
2022/11/21 04:19:08;;;;;;;15.27;3.13;;;;;;;;;;5095970;28;20030;-69
2022/11/21 04:21:34;;;;;;;14.90;3.15;;;;;;;;;;5096070;28;20199;-69
2022/11/21 04:24:01;;;;;;;13.23;3.28;;;;;;;;;;5095937;28;20024;-69
2022/11/21 04:26:27;;;;;;;15.85;3.38;;;;;;;;;;5095781;28;20396;-69
2022/11/21 04:28:53;;;;;;;13.07;2.70;;;;;;;;;;5095598;28;20032;-69
2022/11/21 04:31:19;;;;;;;11.15;3.20;;;;;;;;;;5095693;28;20042;-69
2022/11/21 04:33:46;;;;;;;8.65;2.97;;;;;;;;;;5095674;28;20028;-69
2022/11/21 04:36:12;;;;;;;16.23;3.88;;;;;;;;;;5096112;28;20028;-69
2022/11/21 04:38:39;;;;;;;16.35;3.92;;;;;;;;;;5095486;28;20420;-69
2022/11/21 04:41:05;;;;;;;13.25;3.17;;;;;;;;;;5095571;28;20032;-69
2022/11/21 04:43:31;;;;;;;14.02;3.60;;;;;;;;;;5077472;28;20016;-69
2022/11/21 04:45:57;;;;;;;15.98;3.58;;;;;;;;;;5095432;28;20061;-69
2022/11/21 04:48:24;;;;;;;11.80;2.97;;;;;;;;;;5095318;28;20062;-69
2022/11/21 04:50:50;;;;;;;20.63;3.60;;;;;;;;;;5095617;28;20024;-69
2022/11/21 04:53:16;;;;;;;11.35;2.95;;;;;;;;;;5095205;28;20065;-69
2022/11/21 04:55:43;;;;;;;11.95;3.45;;;;;;;;;;5095428;28;20028;-69
2022/11/21 04:58:09;;;;;;;11.63;3.70;;;;;;;;;;5094908;28;20028;-69
2022/11/21 05:00:35;;;;;;;12.02;2.72;;;;;;;;;;5095312;28;20038;-69
2022/11/21 05:03:05;;;;;;;12.05;3.70;;;;;;;;;;5095261;28;20027;-69
2022/11/21 05:05:31;;;;;;;12.85;3.53;;;;;;;;;;5095230;28;20028;-69
2022/11/21 05:07:58;;;;;;;18.30;4.60;;;;;;;;;;5076965;28;20036;-69
2022/11/21 05:10:24;;;;;;;18.48;3.90;;;;;;;;;;5095152;28;20026;-69
2022/11/21 05:15:45;;;;;;;20.63;4.22;;;;;;;;;;5095112;28;20020;-69
2022/11/21 05:18:11;;;;;;;17.60;4.70;;;;;;;;;;5095372;28;20020;-69
2022/11/21 05:20:38;;;;;;;17.38;6.40;;;;;;;;;;5094843;28;20028;-69
2022/11/21 05:23:04;;;;;;;17.25;6.25;;;;;;;;;;5094983;28;20024;-69
2022/11/21 05:25:30;;;;;;;21.05;6.35;;;;;;;;;;5076063;28;20032;-69
2022/11/21 05:27:57;;;;;;;13.35;4.32;;;;;;;;;;5076033;28;20048;-69
2022/11/21 05:30:23;;;;;;;17.58;4.75;;;;;;;;;;5094843;28;20024;-69
2022/11/21 05:32:49;;;;;;;10.43;3.50;;;;;;;;;;5094845;28;20057;-68
2022/11/21 05:35:16;;;;;;;13.30;3.78;;;;;;;;;;5094681;28;20032;-69
2022/11/21 05:37:42;;;;;;;20.02;4.00;;;;;;;;;;5094520;28;20048;-69
2022/11/21 05:40:09;;;;;;;16.60;4.30;;;;;;;;;;5094493;28;20050;-68
2022/11/21 05:45:23;;;;;;;18.83;3.65;;;;;;;;;;5094624;28;20016;-69
2022/11/21 05:47:50;;;;;;;14.80;4.70;;;;;;;;;;5094276;28;20032;-69
2022/11/21 05:50:16;;;;;;;14.50;3.53;;;;;;;;;;5094266;28;20404;-69
2022/11/21 05:52:42;;;;;;;10.27;3.50;;;;;;;;;;5094585;28;20032;-69
2022/11/21 05:55:09;;;;;;;13.90;3.80;;;;;;;;;;5093896;28;20020;-69
2022/11/21 05:57:35;;;;;;;15.68;3.92;;;;;;;;;;5094192;28;20022;-69
2022/11/21 06:00:01;;;;;;;13.05;4.05;;;;;;;;;;5094105;28;20031;-69
2022/11/21 06:05:13;;;;;;;15.05;4.40;;;;;;;;;;5094011;28;20493;-69
2022/11/21 06:07:39;;;;;;;13.25;4.20;;;;;;;;;;5093798;28;20035;-69
2022/11/21 06:10:05;;;;;;;25.88;4.68;;;;;;;;;;5093452;28;20092;-68
2022/11/21 06:12:32;;;;;;;22.40;4.90;;;;;;;;;;5093751;28;20028;-69
2022/11/21 06:14:58;;;;;;;10.88;3.95;;;;;;;;;;5093721;28;20038;-69
2022/11/21 06:17:24;;;;;;;15.35;4.25;;;;;;;;;;5093859;28;20031;-70
2022/11/21 06:19:51;;;;;;;15.07;4.22;;;;;;;;;;5093658;28;20053;-69
2022/11/21 06:22:17;;;;;;;10.93;3.75;;;;;;;;;;5093548;28;20020;-69
2022/11/21 06:24:44;;;;;;;13.45;4.28;;;;;;;;;;5093567;28;20020;-69
2022/11/21 06:27:10;;;;;;;14.82;4.13;;;;;;;;;;5093401;28;20489;-70
2022/11/21 06:29:37;;;;;;;20.60;4.55;;;;;;;;;;5093721;28;20032;-69
2022/11/21 06:32:03;;;;;;;16.70;4.38;;;;;;;;;;5093638;28;20032;-69
2022/11/21 06:34:29;;;;;;;13.93;3.88;;;;;;;;;;5093137;28;20046;-69
2022/11/21 06:36:56;;;;;;;17.02;5.55;;;;;;;;;;5093522;28;20028;-69
2022/11/21 06:39:22;;;;;;;19.52;4.32;;;;;;;;;;5093258;28;20039;-69
2022/11/21 06:41:49;;;;;;;9.43;4.22;;;;;;;;;;5092981;28;20020;-69
2022/11/21 06:44:19;;;;;;;12.32;4.35;;;;;;;;;;5093437;28;20024;-69
2022/11/21 06:46:45;;;;;;;15.60;4.43;;;;;;;;;;5092945;28;20024;-69
2022/11/21 06:49:12;;;;;;;15.25;4.47;;;;;;;;;;5093127;28;20502;-69
2022/11/21 06:51:38;;;;;;;17.42;5.28;;;;;;;;;;5075306;28;20035;-69
2022/11/21 06:54:04;;;;;;;16.08;4.60;;;;;;;;;;5092844;28;20034;-69
2022/11/21 06:56:31;;;;;;;12.50;4.03;;;;;;;;;;5074830;28;20467;-69
2022/11/21 06:58:58;;;;;;;13.15;4.38;;;;;;;;;;5092829;28;20020;-69
2022/11/21 07:01:25;;;;;;;11.55;4.40;;;;;;;;;;5093006;28;20034;-69
2022/11/21 07:03:52;;;;;;;15.18;4.40;;;;;;;;;;5092790;28;20024;-69
2022/11/21 07:06:18;;;;;;;14.25;3.97;;;;;;;;;;5092701;28;20400;-69
2022/11/21 07:08:44;;;;;;;17.20;5.80;;;;;;;;;;5092330;28;20044;-69
2022/11/21 07:11:12;;;;;;;16.95;5.45;;;;;;;;;;5092790;28;20028;-69
2022/11/21 07:13:38;;;;;;;22.33;7.07;;;;;;;;;;5092593;28;20024;-69
2022/11/21 07:16:09;;;;;;;36.03;13.65;;;;;;;;;;5087290;28;20016;-70
2022/11/21 07:18:35;;;;;;;;;;;;;;;;;;5089467;28;20501;-69
2022/11/21 07:21:03;;;;;;;49.17;18.05;;;;;;;;;;5092501;28;19904;-69
2022/11/21 07:23:30;;;;;;;37.63;14.48;;;;;;;;;;5091860;28;20378;-69
2022/11/21 07:26:03;;;;;;;30.35;11.63;;;;;;;;;;5091185;28;20032;-69
2022/11/21 07:28:29;;;;;;;106.63;36.35;;;;;;;;;;5072744;28;20030;-69
2022/11/21 07:30:56;;;;;;;55.90;21.30;;;;;;;;;;5076521;28;20027;-69
2022/11/21 07:33:22;;;;;;;28.02;10.27;;;;;;;;;;5076704;28;20511;-69
2022/11/21 07:35:49;;;;;;;26.70;8.57;;;;;;;;;;5082941;28;20522;-69
2022/11/21 07:38:15;;;;;;;25.80;7.90;;;;;;;;;;5091003;28;20489;-69
2022/11/21 07:40:42;;;;;;;19.88;4.85;;;;;;;;;;5084781;28;20037;-69
2022/11/21 07:43:10;;;;;;;17.02;4.43;;;;;;;;;;5071735;28;20035;-69
2022/11/21 07:45:36;;;;;;;15.15;3.90;;;;;;;;;;5070919;28;20101;-70
2022/11/21 07:48:04;;;;;;;12.13;3.90;;;;;;;;;;5081208;28;20039;-70
2022/11/21 07:50:30;;;;;;;15.93;4.18;;;;;;;;;;5081379;28;20546;-69
2022/11/21 07:53:01;;;;;;;8.20;3.20;;;;;;;;;;5087906;28;20016;-70
2022/11/21 07:55:28;;;;;;;15.13;3.53;;;;;;;;;;5084778;28;20057;-70
2022/11/21 07:57:58;;;;;;;10.93;3.70;;;;;;;;;;5078223;28;20384;-69
2022/11/21 08:00:25;;;;;;;21.20;3.55;;;;;;;;;;5085661;28;20046;-69
2022/11/21 08:02:51;;;;;;;13.80;3.97;;;;;;;;;;5091564;28;20017;-72
2022/11/21 08:05:17;;;;;;;19.20;4.00;;;;;;;;;;5091033;28;20032;-69
2022/11/21 08:07:44;;;;;;;14.38;4.15;;;;;;;;;;5090300;28;20046;-69
2022/11/21 08:10:10;;;;;;;12.63;3.78;;;;;;;;;;5078594;28;20028;-69
2022/11/21 08:12:36;;;;;;;17.00;3.95;;;;;;;;;;5091935;28;20032;-69
2022/11/21 08:15:03;;;;;;;16.65;4.32;;;;;;;;;;5092435;28;20404;-69
2022/11/21 08:17:30;;;;;;;16.58;4.18;;;;;;;;;;5062432;28;20033;-70
2022/11/21 08:19:57;;;;;;;23.30;4.65;;;;;;;;;;5087711;28;20024;-69
2022/11/21 08:22:24;;;;;;;11.68;3.88;;;;;;;;;;5089001;28;20689;-70
2022/11/21 08:24:50;;;;;;;16.45;4.57;;;;;;;;;;5084450;28;20020;-68
2022/11/21 08:27:19;;;;;;;14.77;4.53;;;;;;;;;;5083595;28;20032;-68
2022/11/21 08:29:46;;;;;;;14.15;4.13;;;;;;;;;;5079866;28;20028;-68
2022/11/21 08:32:12;;;;;;;16.60;4.30;;;;;;;;;;5068994;28;20030;-68
2022/11/21 08:34:38;;;;;;;20.77;3.70;;;;;;;;;;5079071;28;20379;-68
2022/11/21 08:37:05;;;;;;;17.15;3.58;;;;;;;;;;5087230;28;20028;-68
2022/11/21 08:39:31;;;;;;;15.93;4.85;;;;;;;;;;5082431;28;20563;-68
2022/11/21 08:42:03;;;;;;;15.32;3.88;;;;;;;;;;5093713;28;20511;-68
2022/11/21 08:44:30;;;;;;;15.45;3.28;;;;;;;;;;5080998;28;20036;-67
2022/11/21 08:46:56;;;;;;;20.30;4.28;;;;;;;;;;5094987;28;20017;-68
2022/11/21 08:49:22;;;;;;;11.98;3.42;;;;;;;;;;5089865;28;20024;-68
2022/11/21 08:51:49;;;;;;;21.85;4.30;;;;;;;;;;5089769;28;20024;-68
2022/11/21 08:54:16;;;;;;;13.90;3.70;;;;;;;;;;5088919;28;20389;-68
2022/11/21 08:56:42;;;;;;;12.05;4.70;;;;;;;;;;5077059;28;20034;-67
2022/11/21 08:59:08;;;;;;;18.00;4.85;;;;;;;;;;5089627;28;20374;-68
2022/11/21 09:01:35;;;;;;;18.27;5.05;;;;;;;;;;5093364;28;20432;-68
2022/11/21 09:04:01;;;;;;;18.15;4.32;;;;;;;;;;5093087;28;20016;-67
2022/11/21 09:06:27;;;;;;;14.63;4.68;;;;;;;;;;5091537;28;20439;-67
2022/11/21 09:08:54;;;;;;;16.30;5.00;;;;;;;;;;5075202;28;20040;-66
2022/11/21 09:11:20;;;;;;;18.90;5.93;;;;;;;;;;5081558;28;20495;-67
2022/11/21 09:18:01;;;;;;;25.67;9.05;;;;;;;;;;5083686;28;20024;-64
2022/11/21 09:19:21;;;;;;;23.05;7.35;;;;;;;;;;5077923;28;20027;-67
2022/11/21 09:21:51;;;;;;;21.83;7.63;;;;;;;;;;5073126;28;20031;-70
2022/11/21 09:24:18;;;;;;;23.58;7.22;;;;;;;;;;5091135;28;20497;-68
2022/11/21 09:26:45;;;;;;;19.48;6.70;;;;;;;;;;5078845;28;20020;-66
2022/11/21 09:29:13;;;;;;;20.15;6.82;;;;;;;;;;5083087;28;20031;-67
2022/11/21 09:31:40;;;;;;;20.25;7.10;;;;;;;;;;5072770;28;20031;-67
2022/11/21 09:34:07;;;;;;;19.05;6.20;;;;;;;;;;5072493;28;20021;-68
2022/11/21 09:36:33;;;;;;;16.73;6.53;;;;;;;;;;5073229;28;20039;-68
2022/11/21 09:39:00;;;;;;;30.10;7.57;;;;;;;;;;5090893;28;20108;-68
2022/11/21 09:44:27;;;;;;;24.00;6.03;;;;;;;;;;5074048;28;20033;-68
2022/11/21 09:46:59;;;;;;;37.05;11.85;;;;;;;;;;5054820;28;20037;-67
2022/11/21 09:49:25;;;;;;;22.17;8.90;;;;;;;;;;5077455;28;20371;-70
2022/11/21 09:51:53;;;;;;;36.00;12.15;;;;;;;;;;5076856;28;20090;-72
2022/11/21 09:54:30;;;;;;;45.03;22.25;;;;;;;;;;5073312;28;20022;-67
2022/11/21 09:56:56;;;;;;;50.38;19.92;;;;;;;;;;5073809;28;20035;-68
2022/11/21 09:59:32;;;;;;;59.35;20.90;;;;;;;;;;5086317;28;20073;-65
2022/11/21 10:01:58;;;;;;;24.50;10.27;;;;;;;;;;5105752;28;20050;-66
2022/11/21 10:04:26;;;;;;;22.92;9.52;;;;;;;;;;5113483;28;20018;-67
2022/11/21 10:06:58;;;;;;;26.63;10.48;;;;;;;;;;5093420;28;20030;-70
2022/11/21 10:09:27;;;;;;;27.83;12.50;;;;;;;;;;5082631;28;20025;-64
2022/11/21 10:14:56;;;;;;;22.73;7.90;;;;;;;;;;5093097;28;20032;-70
2022/11/21 10:17:42;;;;;;;21.02;7.95;;;;;;;;;;5081061;28;20031;-71
2022/11/21 10:20:26;;;;;;;11.95;4.72;;;;;;;;;;5054664;28;20039;-69
2022/11/21 10:22:55;;;;;;;9.15;2.55;;;;;;;;;;5073028;28;20013;-68
2022/11/21 10:25:25;;;;;;;30.70;14.30;;;;;;;;;;5089277;28;20027;-66
2022/11/21 10:27:55;;;;;;;33.30;15.55;;;;;;;;;;5088386;28;20042;-71
2022/11/21 10:30:22;;;;;;;12.32;3.53;;;;;;;;;;5082329;28;20031;-67
2022/11/21 10:32:54;;;;;;;11.23;3.15;;;;;;;;;;5085080;28;20041;-66
2022/11/21 10:35:22;;;;;;;13.35;4.35;;;;;;;;;;5093827;28;20016;-67
2022/11/21 10:37:52;;;;;;;48.90;21.27;;;;;;;;;;5111820;28;20043;-67
2022/11/21 10:40:22;;;;;;;51.70;26.25;;;;;;;;;;5084722;28;20030;-67
2022/11/21 10:42:55;;;;;;;45.42;23.48;;;;;;;;;;5087042;28;20021;-69
2022/11/21 10:45:22;;;;;;;34.33;15.27;;;;;;;;;;5070856;28;20029;-68
2022/11/21 10:47:49;;;;;;;11.18;4.57;;;;;;;;;;5102564;28;20526;-68
2022/11/21 10:50:25;;;;;;;8.77;3.75;;;;;;;;;;5094040;28;20034;-67
2022/11/21 10:52:54;;;;;;;11.07;4.07;;;;;;;;;;5092708;28;20035;-69
2022/11/21 10:55:20;;;;;;;15.75;4.53;;;;;;;;;;5078967;28;20046;-68
2022/11/21 10:57:48;;;;;;;25.13;7.97;;;;;;;;;;5071857;28;20030;-67
2022/11/21 11:00:16;;;;;;;12.63;5.15;;;;;;;;;;5071516;28;20428;-67
2022/11/21 11:02:59;;;;;;;12.65;3.78;;;;;;;;;;5073230;28;20017;-67
2022/11/21 11:05:26;;;;;;;11.10;3.58;;;;;;;;;;5072923;28;20036;-68
2022/11/21 11:08:12;;;;;;;17.27;7.68;;;;;;;;;;5071874;28;20090;-67
2022/11/21 11:10:38;;;;;;;16.65;8.18;;;;;;;;;;5071962;28;20028;-67
2022/11/21 11:13:33;;;;;;;17.77;6.68;;;;;;;;;;5071850;28;20026;-69
2022/11/21 11:16:09;;;;;;;12.18;4.60;;;;;;;;;;5085021;28;20028;-67
2022/11/21 11:18:38;;;;;;;8.57;3.85;;;;;;;;;;5092289;28;20012;-65
2022/11/21 11:21:13;;;;;;;9.30;3.67;;;;;;;;;;5092332;28;20034;-67
2022/11/21 11:23:39;;;;;;;7.65;2.90;;;;;;;;;;5091749;28;20050;-65
2022/11/21 11:26:18;;;;;;;16.02;5.53;;;;;;;;;;5092279;28;20031;-66
2022/11/21 11:28:44;;;;;;;18.00;7.93;;;;;;;;;;5091994;28;20412;-68
2022/11/21 11:31:10;;;;;;;11.60;4.85;;;;;;;;;;5074452;28;20024;-67
2022/11/21 11:33:40;;;;;;;15.35;6.63;;;;;;;;;;5092592;28;20040;-68
2022/11/21 11:36:16;;;;;;;9.95;3.60;;;;;;;;;;5092384;28;20034;-67
2022/11/21 11:38:44;;;;;;;59.60;26.80;;;;;;;;;;5092143;28;20104;-67
2022/11/21 11:47:29;;;;;;;20.77;8.85;;;;;;;;;;5092384;28;20030;-67
2022/11/21 11:47:29;;;;;;;19.65;7.10;;;;;;;;;;5092210;28;20020;-67
2022/11/21 11:50:11;;;;;;;16.25;6.00;;;;;;;;;;5091928;28;20525;-67
2022/11/21 11:52:50;;;;;;;11.00;4.18;;;;;;;;;;5092234;28;20030;-67
2022/11/21 11:55:20;;;;;;;11.25;4.95;;;;;;;;;;5092104;28;20013;-67
2022/11/21 11:57:47;;;;;;;8.43;3.50;;;;;;;;;;5085689;28;20051;-67
2022/11/21 12:00:23;;;;;;;10.95;4.78;;;;;;;;;;5083990;28;20030;-68
2022/11/21 12:02:52;;;;;;;15.85;5.80;;;;;;;;;;5091095;28;20021;-67
2022/11/21 12:05:25;;;;;;;13.15;5.43;;;;;;;;;;5078063;28;20032;-67
2022/11/21 12:08:00;;;;;;;10.20;5.07;;;;;;;;;;5070595;28;20044;-67
2022/11/21 12:10:27;;;;;;;15.02;4.80;;;;;;;;;;5069508;28;20039;-66
2022/11/21 12:13:04;;;;;;;14.35;5.78;;;;;;;;;;5052519;28;20028;-66
2022/11/21 12:15:47;;;;;;;12.27;6.05;;;;;;;;;;5077835;28;20375;-70
2022/11/21 12:18:23;;;;;;;9.82;3.97;;;;;;;;;;5111302;28;20027;-68
2022/11/21 12:20:53;;;;;;;10.25;3.70;;;;;;;;;;5111290;28;20028;-68
2022/11/21 12:23:19;;;;;;;12.40;3.65;;;;;;;;;;5111094;28;20027;-68
2022/11/21 12:26:04;;;;;;;10.18;4.22;;;;;;;;;;5111338;28;20411;-68
2022/11/21 12:28:44;;;;;;;14.43;6.07;;;;;;;;;;5110754;28;20036;-69
2022/11/21 12:31:10;;;;;;;18.48;7.07;;;;;;;;;;5111173;28;20024;-68
2022/11/21 12:33:41;;;;;;;16.05;8.07;;;;;;;;;;5111963;28;20035;-69
2022/11/21 12:36:07;;;;;;;19.07;9.93;;;;;;;;;;5115337;28;20494;-68
2022/11/21 12:38:36;;;;;;;10.95;5.00;;;;;;;;;;5105049;28;20289;-68
2022/11/21 12:42:48;;;;;;;11.48;4.30;;;;;;;;;;5083920;28;20511;-67
2022/11/21 12:44:02;;;;;;;8.60;3.85;;;;;;;;;;5080305;28;20660;-67
2022/11/21 12:46:36;;;;;;;5.90;3.55;;;;;;;;;;5114874;28;20016;-70
2022/11/21 12:54:57;;;;;;;8.23;3.22;;;;;;;;;;5066602;28;20048;-68
2022/11/21 12:57:31;;;;;;;25.63;12.73;;;;;;;;;;5076121;28;20477;-67
2022/11/21 13:00:06;;;;;;;10.82;5.55;;;;;;;;;;5074299;28;20024;-67
2022/11/21 13:02:38;;;;;;;10.07;5.07;;;;;;;;;;5089928;28;20027;-66
2022/11/21 13:05:05;;;;;;;9.80;4.78;;;;;;;;;;5102865;28;20028;-65
2022/11/21 13:07:32;;;;;;;8.55;3.33;;;;;;;;;;5094149;28;20040;-66
2022/11/21 13:10:00;;;;;;;9.55;2.92;;;;;;;;;;5093759;28;20024;-66
2022/11/21 13:12:29;;;;;;;7.35;2.30;;;;;;;;;;5093490;28;20024;-67
2022/11/21 13:15:01;;;;;;;9.43;2.70;;;;;;;;;;5098542;28;20506;-69
2022/11/21 13:17:33;;;;;;;5.43;2.40;;;;;;;;;;5102888;28;20033;-69
2022/11/21 13:19:59;;;;;;;9.10;3.63;;;;;;;;;;5093796;28;20028;-68
2022/11/21 13:22:35;;;;;;;11.43;4.53;;;;;;;;;;5093871;28;20020;-68
2022/11/21 13:25:20;;;;;;;6.13;3.28;;;;;;;;;;5092866;28;20046;-69
2022/11/21 13:27:46;;;;;;;7.20;2.85;;;;;;;;;;5093290;28;20088;-66
2022/11/21 13:30:13;;;;;;;8.18;2.08;;;;;;;;;;5093473;28;20028;-66
2022/11/21 13:32:41;;;;;;;7.57;2.05;;;;;;;;;;5093439;28;20423;-67
2022/11/21 13:35:19;;;;;;;7.78;2.65;;;;;;;;;;5075247;28;20031;-66
2022/11/21 13:37:49;;;;;;;5.22;2.00;;;;;;;;;;5074927;28;20926;-68
2022/11/21 13:40:30;;;;;;;3.70;1.85;;;;;;;;;;5093087;28;20016;-67
2022/11/21 13:43:09;;;;;;;6.30;2.20;;;;;;;;;;5092990;28;20081;-66
2022/11/21 13:45:52;;;;;;;7.60;2.47;;;;;;;;;;5092298;28;20028;-66
2022/11/21 13:48:30;;;;;;;7.22;2.40;;;;;;;;;;5059689;28;20494;-69
2022/11/21 13:51:09;;;;;;;5.65;2.08;;;;;;;;;;5073626;28;20021;-69
2022/11/21 13:53:54;;;;;;;4.20;2.13;;;;;;;;;;5079721;28;20016;-68
2022/11/21 13:56:39;;;;;;;8.02;2.80;;;;;;;;;;5084293;28;20035;-67
2022/11/21 13:59:12;;;;;;;7.63;2.22;;;;;;;;;;5089511;28;20028;-65
2022/11/21 14:01:52;;;;;;;6.43;2.70;;;;;;;;;;5083462;28;20033;-66
2022/11/21 14:04:18;;;;;;;6.65;2.35;;;;;;;;;;5067261;28;20366;-65
2022/11/21 14:06:45;;;;;;;5.65;2.20;;;;;;;;;;5086085;28;20062;-66
2022/11/21 14:09:14;;;;;;;5.65;2.45;;;;;;;;;;5075712;28;20046;-65
2022/11/21 14:11:47;;;;;;;5.88;2.58;;;;;;;;;;5089260;28;20020;-64
2022/11/21 14:14:23;;;;;;;4.05;2.15;;;;;;;;;;5088381;28;20020;-73
2022/11/21 14:16:53;;;;;;;5.97;2.03;;;;;;;;;;5072148;28;20016;-65
2022/11/21 14:19:20;;;;;;;6.55;2.20;;;;;;;;;;5092259;28;20710;-65
2022/11/21 14:21:47;;;;;;;7.55;2.60;;;;;;;;;;5059814;28;20029;-66
2022/11/21 14:24:20;;;;;;;8.77;3.22;;;;;;;;;;5071270;28;20077;-65
2022/11/21 14:26:48;;;;;;;7.75;2.80;;;;;;;;;;5071054;28;20511;-66
2022/11/21 14:29:28;;;;;;;6.75;3.58;;;;;;;;;;5070914;28;20040;-66
2022/11/21 14:31:54;;;;;;;9.10;4.60;;;;;;;;;;5071485;28;20036;-66
2022/11/21 14:34:25;;;;;;;11.95;6.10;;;;;;;;;;5075617;28;20031;-67
2022/11/21 14:36:52;;;;;;;8.70;3.60;;;;;;;;;;5089220;28;20451;-67
2022/11/21 14:39:19;;;;;;;13.07;6.05;;;;;;;;;;5091702;28;20044;-68
2022/11/21 14:41:51;;;;;;;9.38;5.50;;;;;;;;;;5075217;28;20498;-67
2022/11/21 14:44:18;;;;;;;6.20;3.88;;;;;;;;;;5091322;28;20028;-65
2022/11/21 14:46:45;;;;;;;6.63;3.25;;;;;;;;;;5091461;28;20473;-66
2022/11/21 14:49:14;;;;;;;7.55;3.33;;;;;;;;;;5091525;28;20029;-67
2022/11/21 14:51:41;;;;;;;16.60;9.30;;;;;;;;;;5090494;28;20097;-67
2022/11/21 14:54:13;;;;;;;10.00;5.72;;;;;;;;;;5091752;28;20053;-66
2022/11/21 14:56:40;;;;;;;10.00;5.00;;;;;;;;;;5090824;28;20016;-66
2022/11/21 14:59:13;;;;;;;19.17;11.98;;;;;;;;;;5090547;28;20020;-66
2022/11/21 15:01:39;;;;;;;17.08;10.73;;;;;;;;;;5089885;28;20069;-66
2022/11/21 15:04:07;;;;;;;17.25;9.60;;;;;;;;;;5088069;28;20020;-65
2022/11/21 15:06:40;;;;;;;23.27;16.60;;;;;;;;;;5084114;28;20042;-68